sensor_id;sensor_type;location;lat;lon;timestamp;pressure;altitude;pressure_sealevel;temperature;humidity
77639;BME280;66802;52.574;14.398;2023-04-03T03:00:54;103118.09;;;-0.33;73.23
77639;BME280;66802;52.574;14.398;2023-04-03T03:03:19;103128.84;;;-0.42;73.74
77639;BME280;66802;52.574;14.398;2023-04-03T03:05:45;103127.91;;;-0.38;73.64
77639;BME280;66802;52.574;14.398;2023-04-03T03:08:10;103121.75;;;-0.40;73.81
77639;BME280;66802;52.574;14.398;2023-04-03T03:10:36;103119.97;;;-0.40;73.93
77639;BME280;66802;52.574;14.398;2023-04-03T03:13:01;103124.34;;;-0.37;73.87
77639;BME280;66802;52.574;14.398;2023-04-03T03:15:27;103127.09;;;-0.43;73.92
77639;BME280;66802;52.574;14.398;2023-04-03T03:17:52;103131.56;;;-0.44;73.64
77639;BME280;66802;52.574;14.398;2023-04-03T03:20:18;103135.88;;;-0.38;73.46
77639;BME280;66802;52.574;14.398;2023-04-03T03:22:43;103134.97;;;-0.37;73.75
77639;BME280;66802;52.574;14.398;2023-04-03T03:25:09;103131.47;;;-0.41;73.91
77639;BME280;66802;52.574;14.398;2023-04-03T03:27:35;103131.47;;;-0.39;73.80
77639;BME280;66802;52.574;14.398;2023-04-03T03:30:00;103133.28;;;-0.43;74.04
77639;BME280;66802;52.574;14.398;2023-04-03T03:32:26;103135.94;;;-0.43;74.16
77639;BME280;66802;52.574;14.398;2023-04-03T03:34:51;103135.94;;;-0.43;73.79
77639;BME280;66802;52.574;14.398;2023-04-03T03:37:17;103132.34;;;-0.40;73.68
77639;BME280;66802;52.574;14.398;2023-04-03T03:39:42;103143.94;;;-0.44;73.77
77639;BME280;66802;52.574;14.398;2023-04-03T03:42:08;103142.22;;;-0.48;74.27
77639;BME280;66802;52.574;14.398;2023-04-03T03:44:33;103142.25;;;-0.50;74.25
77639;BME280;66802;52.574;14.398;2023-04-03T03:46:59;103143.19;;;-0.54;74.41
77639;BME280;66802;52.574;14.398;2023-04-03T03:49:25;103146.69;;;-0.52;74.44
77639;BME280;66802;52.574;14.398;2023-04-03T03:51:50;103146.78;;;-0.55;74.32
77639;BME280;66802;52.574;14.398;2023-04-03T03:54:16;103150.25;;;-0.53;74.18
77639;BME280;66802;52.574;14.398;2023-04-03T03:56:42;103145.03;;;-0.57;74.85
77639;BME280;66802;52.574;14.398;2023-04-03T03:59:08;103143.28;;;-0.60;74.59
77639;BME280;66802;52.574;14.398;2023-04-03T04:01:33;103147.72;;;-0.60;74.81
77639;BME280;66802;52.574;14.398;2023-04-03T04:03:59;103146.94;;;-0.65;74.78
77639;BME280;66802;52.574;14.398;2023-04-03T04:06:25;103153.03;;;-0.60;74.59
77639;BME280;66802;52.574;14.398;2023-04-03T04:08:51;103149.47;;;-0.59;74.44
77639;BME280;66802;52.574;14.398;2023-04-03T04:11:16;103158.34;;;-0.62;74.17
77639;BME280;66802;52.574;14.398;2023-04-03T04:13:42;103154.00;;;-0.66;74.68
77639;BME280;66802;52.574;14.398;2023-04-03T04:16:08;103159.22;;;-0.61;74.67
77639;BME280;66802;52.574;14.398;2023-04-03T04:18:33;103159.25;;;-0.64;74.59
77639;BME280;66802;52.574;14.398;2023-04-03T04:20:59;103168.19;;;-0.68;74.83
77639;BME280;66802;52.574;14.398;2023-04-03T04:23:24;103169.09;;;-0.69;74.44
77639;BME280;66802;52.574;14.398;2023-04-03T04:25:51;103163.75;;;-0.68;74.70
77639;BME280;66802;52.574;14.398;2023-04-03T04:28:16;103169.94;;;-0.67;74.57
77639;BME280;66802;52.574;14.398;2023-04-03T04:30:42;103168.16;;;-0.65;74.64
77639;BME280;66802;52.574;14.398;2023-04-03T04:33:08;103169.84;;;-0.63;73.91
77639;BME280;66802;52.574;14.398;2023-04-03T04:35:34;103171.59;;;-0.62;73.46
77639;BME280;66802;52.574;14.398;2023-04-03T04:37:59;103159.31;;;-0.66;73.69
77639;BME280;66802;52.574;14.398;2023-04-03T04:40:25;103163.66;;;-0.63;73.14
77639;BME280;66802;52.574;14.398;2023-04-03T04:42:51;103172.53;;;-0.64;73.18
77639;BME280;66802;52.574;14.398;2023-04-03T04:45:17;103173.50;;;-0.68;72.89
77639;BME280;66802;52.574;14.398;2023-04-03T04:47:42;103178.84;;;-0.71;73.03
77639;BME280;66802;52.574;14.398;2023-04-03T04:50:08;103177.06;;;-0.73;72.68
77639;BME280;66802;52.574;14.398;2023-04-03T04:52:34;103185.13;;;-0.79;73.18
77639;BME280;66802;52.574;14.398;2023-04-03T04:54:59;103178.09;;;-0.81;73.00
77639;BME280;66802;52.574;14.398;2023-04-03T04:57:25;103174.56;;;-0.82;72.77
77639;BME280;66802;52.574;14.398;2023-04-03T04:59:50;103171.97;;;-0.86;73.04
77639;BME280;66802;52.574;14.398;2023-04-03T05:02:16;103179.88;;;-0.83;73.17
77639;BME280;66802;52.574;14.398;2023-04-03T05:04:42;103181.72;;;-0.87;73.24
77639;BME280;66802;52.574;14.398;2023-04-03T05:07:07;103172.88;;;-0.87;73.21
77639;BME280;66802;52.574;14.398;2023-04-03T05:09:33;103178.09;;;-0.83;73.02
77639;BME280;66802;52.574;14.398;2023-04-03T05:11:58;103181.72;;;-0.87;72.88
77639;BME280;66802;52.574;14.398;2023-04-03T05:14:24;103186.16;;;-0.89;73.21
77639;BME280;66802;52.574;14.398;2023-04-03T05:16:50;103191.50;;;-0.92;73.50
77639;BME280;66802;52.574;14.398;2023-04-03T05:19:20;103188.84;;;-0.92;73.69
77639;BME280;66802;52.574;14.398;2023-04-03T05:21:46;103188.84;;;-0.92;73.79
77639;BME280;66802;52.574;14.398;2023-04-03T05:24:12;103193.28;;;-0.94;73.97
77639;BME280;66802;52.574;14.398;2023-04-03T05:26:38;103185.31;;;-0.94;73.97
77639;BME280;66802;52.574;14.398;2023-04-03T05:29:03;103190.63;;;-0.94;74.38
77639;BME280;66802;52.574;14.398;2023-04-03T05:31:29;103189.72;;;-0.93;74.43
77639;BME280;66802;52.574;14.398;2023-04-03T05:33:56;103189.75;;;-0.94;74.89
77639;BME280;66802;52.574;14.398;2023-04-03T05:36:21;103196.84;;;-0.96;75.37
77639;BME280;66802;52.574;14.398;2023-04-03T05:38:47;103201.22;;;-0.92;75.56
77639;BME280;66802;52.574;14.398;2023-04-03T05:41:15;103196.81;;;-0.93;75.77
77639;BME280;66802;52.574;14.398;2023-04-03T05:43:40;103202.13;;;-0.95;76.38
77639;BME280;66802;52.574;14.398;2023-04-03T05:46:15;103206.50;;;-0.89;76.57
77639;BME280;66802;52.574;14.398;2023-04-03T05:48:41;103202.00;;;-0.86;76.30
77639;BME280;66802;52.574;14.398;2023-04-03T05:51:17;103209.00;;;-0.80;76.94
77639;BME280;66802;52.574;14.398;2023-04-03T05:53:45;103209.00;;;-0.79;76.70
77639;BME280;66802;52.574;14.398;2023-04-03T05:56:12;103214.16;;;-0.69;77.04
77639;BME280;66802;52.574;14.398;2023-04-03T05:58:38;103215.03;;;-0.67;76.93
77639;BME280;66802;52.574;14.398;2023-04-03T06:01:04;103214.06;;;-0.63;77.13
77639;BME280;66802;52.574;14.398;2023-04-03T06:03:30;103216.59;;;-0.54;76.40
77639;BME280;66802;52.574;14.398;2023-04-03T06:05:56;103211.31;;;-0.54;76.64
77639;BME280;66802;52.574;14.398;2023-04-03T06:08:22;103213.81;;;-0.45;76.75
77639;BME280;66802;52.574;14.398;2023-04-03T06:10:49;103218.19;;;-0.43;76.37
77639;BME280;66802;52.574;14.398;2023-04-03T06:13:16;103211.94;;;-0.39;76.48
77639;BME280;66802;52.574;14.398;2023-04-03T06:15:42;103215.34;;;-0.30;76.37
77639;BME280;66802;52.574;14.398;2023-04-03T06:18:08;103214.41;;;-0.28;76.02
77639;BME280;66802;52.574;14.398;2023-04-03T06:20:34;103218.69;;;-0.19;76.02
77639;BME280;66802;52.574;14.398;2023-04-03T06:22:59;103214.22;;;-0.16;75.85
77639;BME280;66802;52.574;14.398;2023-04-03T06:25:25;103207.06;;;-0.11;76.19
77639;BME280;66802;52.574;14.398;2023-04-03T06:27:51;103226.31;;;0.00;75.97
77639;BME280;66802;52.574;14.398;2023-04-03T06:30:17;103220.94;;;0.07;75.94
77639;BME280;66802;52.574;14.398;2023-04-03T06:32:43;103223.38;;;0.19;75.26
77639;BME280;66802;52.574;14.398;2023-04-03T06:35:09;103224.06;;;0.30;74.58
77639;BME280;66802;52.574;14.398;2023-04-03T06:37:34;103226.56;;;0.38;74.24
77639;BME280;66802;52.574;14.398;2023-04-03T06:40:00;103224.56;;;0.50;73.78
77639;BME280;66802;52.574;14.398;2023-04-03T06:42:26;103221.75;;;0.59;73.04
77639;BME280;66802;52.574;14.398;2023-04-03T06:44:52;103223.31;;;0.69;72.90
77639;BME280;66802;52.574;14.398;2023-04-03T06:47:18;103232.75;;;0.86;72.40
77639;BME280;66802;52.574;14.398;2023-04-03T06:49:44;103236.72;;;1.08;71.34
77639;BME280;66802;52.574;14.398;2023-04-03T06:52:10;103236.38;;;1.23;70.86
77639;BME280;66802;52.574;14.398;2023-04-03T06:54:37;103235.97;;;1.41;68.82
77639;BME280;66802;52.574;14.398;2023-04-03T06:57:03;103239.97;;;1.61;67.49
77639;BME280;66802;52.574;14.398;2023-04-03T06:59:29;103252.03;;;1.75;65.56
77639;BME280;66802;52.574;14.398;2023-04-03T07:01:55;103241.97;;;1.88;66.43
77639;BME280;66802;52.574;14.398;2023-04-03T07:04:20;103248.50;;;2.12;64.11
77639;BME280;66802;52.574;14.398;2023-04-03T07:06:46;103251.69;;;2.26;63.61
77639;BME280;66802;52.574;14.398;2023-04-03T07:09:14;103246.09;;;2.37;63.74
77639;BME280;66802;52.574;14.398;2023-04-03T07:11:39;103253.72;;;2.49;61.04
77639;BME280;66802;52.574;14.398;2023-04-03T07:14:06;103256.19;;;2.58;59.11
77639;BME280;66802;52.574;14.398;2023-04-03T07:16:33;103258.41;;;2.73;60.81
77639;BME280;66802;52.574;14.398;2023-04-03T07:19:00;103264.59;;;2.75;58.74
77639;BME280;66802;52.574;14.398;2023-04-03T07:21:25;103252.91;;;2.81;56.89
77639;BME280;66802;52.574;14.398;2023-04-03T07:23:51;103259.00;;;2.84;56.53
77639;BME280;66802;52.574;14.398;2023-04-03T07:26:16;103258.00;;;2.88;56.26
77639;BME280;66802;52.574;14.398;2023-04-03T07:28:43;103260.81;;;2.82;57.06
77639;BME280;66802;52.574;14.398;2023-04-03T07:31:12;103269.16;;;3.03;57.29
77639;BME280;66802;52.574;14.398;2023-04-03T07:33:43;103276.69;;;3.19;56.03
77639;BME280;66802;52.574;14.398;2023-04-03T07:36:10;103271.81;;;3.34;57.27
77639;BME280;66802;52.574;14.398;2023-04-03T07:38:37;103274.94;;;3.48;55.27
77639;BME280;66802;52.574;14.398;2023-04-03T07:41:03;103273.78;;;3.56;56.45
77639;BME280;66802;52.574;14.398;2023-04-03T07:43:29;103269.41;;;3.82;55.61
77639;BME280;66802;52.574;14.398;2023-04-03T07:45:55;103275.88;;;3.75;52.43
77639;BME280;66802;52.574;14.398;2023-04-03T07:48:23;103270.53;;;3.75;53.93
77639;BME280;66802;52.574;14.398;2023-04-03T07:50:49;103279.19;;;3.83;53.81
77639;BME280;66802;52.574;14.398;2023-04-03T07:53:15;103282.59;;;3.88;52.83
77639;BME280;66802;52.574;14.398;2023-04-03T07:55:40;103281.41;;;3.68;52.46
77639;BME280;66802;52.574;14.398;2023-04-03T07:58:11;103276.44;;;3.86;52.54
77639;BME280;66802;52.574;14.398;2023-04-03T08:00:38;103270.25;;;3.84;50.47
77639;BME280;66802;52.574;14.398;2023-04-03T08:03:05;103270.44;;;4.06;50.33
77639;BME280;66802;52.574;14.398;2023-04-03T08:05:35;103275.38;;;4.18;51.85
77639;BME280;66802;52.574;14.398;2023-04-03T08:08:01;103268.63;;;4.06;48.69
77639;BME280;66802;52.574;14.398;2023-04-03T08:10:30;103272.19;;;4.07;51.44
77639;BME280;66802;52.574;14.398;2023-04-03T08:12:56;103272.63;;;3.93;48.44
77639;BME280;66802;52.574;14.398;2023-04-03T08:15:22;103268.03;;;3.98;48.68
77639;BME280;66802;52.574;14.398;2023-04-03T08:17:48;103265.88;;;4.09;49.53
77639;BME280;66802;52.574;14.398;2023-04-03T08:20:13;103276.44;;;4.12;50.09
77639;BME280;66802;52.574;14.398;2023-04-03T08:22:39;103269.94;;;3.93;48.31
77639;BME280;66802;52.574;14.398;2023-04-03T08:25:05;103269.03;;;3.94;48.83
77639;BME280;66802;52.574;14.398;2023-04-03T08:27:30;103269.94;;;3.93;50.99
77639;BME280;66802;52.574;14.398;2023-04-03T08:29:56;103268.03;;;3.98;50.22
77639;BME280;66802;52.574;14.398;2023-04-03T08:32:22;103269.84;;;3.96;49.16
77639;BME280;66802;52.574;14.398;2023-04-03T08:34:48;103271.22;;;3.81;50.01
77639;BME280;66802;52.574;14.398;2023-04-03T08:37:14;103279.69;;;3.67;50.43
77639;BME280;66802;52.574;14.398;2023-04-03T08:39:42;103272.72;;;3.62;48.61
77639;BME280;66802;52.574;14.398;2023-04-03T08:48:19;103260.34;;;3.30;50.33
77639;BME280;66802;52.574;14.398;2023-04-03T08:50:51;103268.59;;;3.80;50.13
77639;BME280;66802;52.574;14.398;2023-04-03T08:53:21;103260.63;;;4.06;49.30
77639;BME280;66802;52.574;14.398;2023-04-03T08:55:53;103266.72;;;4.36;47.95
77639;BME280;66802;52.574;14.398;2023-04-03T08:58:25;103260.16;;;4.20;48.18
77639;BME280;66802;52.574;14.398;2023-04-03T09:01:00;103260.53;;;4.09;49.65
77639;BME280;66802;52.574;14.398;2023-04-03T09:03:31;103265.22;;;4.01;47.27
77639;BME280;66802;52.574;14.398;2023-04-03T09:06:20;103249.19;;;4.01;46.35
77639;BME280;66802;52.574;14.398;2023-04-03T09:09:07;103249.53;;;4.18;46.52
77639;BME280;66802;52.574;14.398;2023-04-03T09:22:25;103250.53;;;4.90;46.73
77639;BME280;66802;52.574;14.398;2023-04-03T09:25:05;103255.25;;;4.84;46.88
77639;BME280;66802;52.574;14.398;2023-04-03T09:27:33;103260.16;;;4.71;47.10
77639;BME280;66802;52.574;14.398;2023-04-03T09:29:58;103258.09;;;4.54;46.71
77639;BME280;66802;52.574;14.398;2023-04-03T09:32:29;103264.75;;;4.43;47.28
77639;BME280;66802;52.574;14.398;2023-04-03T09:34:59;103255.09;;;4.37;48.46
77639;BME280;66802;52.574;14.398;2023-04-03T09:37:40;103261.34;;;4.37;50.43
77639;BME280;66802;52.574;14.398;2023-04-03T09:40:28;103269.13;;;4.44;50.79
77639;BME280;66802;52.574;14.398;2023-04-03T09:42:56;103262.94;;;4.43;50.91
77639;BME280;66802;52.574;14.398;2023-04-03T09:45:32;103262.53;;;4.29;50.37
77639;BME280;66802;52.574;14.398;2023-04-03T09:53:30;103252.25;;;4.43;51.73
77639;BME280;66802;52.574;14.398;2023-04-03T09:55:57;103259.75;;;4.32;51.93
77639;BME280;66802;52.574;14.398;2023-04-03T09:58:37;103263.34;;;4.31;51.28
77639;BME280;66802;52.574;14.398;2023-04-03T10:01:03;103262.78;;;4.21;52.64
77639;BME280;66802;52.574;14.398;2023-04-03T10:03:35;103255.53;;;4.25;51.75
77639;BME280;66802;52.574;14.398;2023-04-03T10:06:04;103254.78;;;4.21;51.61
77639;BME280;66802;52.574;14.398;2023-04-03T10:08:34;103255.28;;;4.32;49.78
77639;BME280;66802;52.574;14.398;2023-04-03T10:13:33;103250.03;;;4.29;50.20
77639;BME280;66802;52.574;14.398;2023-04-03T10:16:08;103231.88;;;4.39;49.68
77639;BME280;66802;52.574;14.398;2023-04-03T10:19:01;103234.59;;;4.37;50.46
77639;BME280;66802;52.574;14.398;2023-04-03T10:22:10;103235.25;;;4.44;50.53
77639;BME280;66802;52.574;14.398;2023-04-03T10:35:59;103231.31;;;4.29;51.61
77639;BME280;66802;52.574;14.398;2023-04-03T10:38:33;103225.66;;;4.38;50.04
77639;BME280;66802;52.574;14.398;2023-04-03T10:41:10;103233.78;;;4.35;51.69
77639;BME280;66802;52.574;14.398;2023-04-03T10:43:59;103230.13;;;4.38;50.19
77639;BME280;66802;52.574;14.398;2023-04-03T10:46:52;103225.75;;;4.35;50.70
77639;BME280;66802;52.574;14.398;2023-04-03T10:54:45;103221.94;;;4.43;48.97
77639;BME280;66802;52.574;14.398;2023-04-03T10:57:13;103223.06;;;4.35;49.76
77639;BME280;66802;52.574;14.398;2023-04-03T10:59:53;103219.47;;;4.36;49.67
77639;BME280;66802;52.574;14.398;2023-04-03T11:02:28;103215.38;;;4.26;50.48
77639;BME280;66802;52.574;14.398;2023-04-03T11:05:01;103214.06;;;4.38;50.92
77639;BME280;66802;52.574;14.398;2023-04-03T11:07:37;103218.88;;;4.28;50.75
77639;BME280;66802;52.574;14.398;2023-04-03T11:10:53;103216.09;;;4.31;50.73
77639;BME280;66802;52.574;14.398;2023-04-03T11:13:10;103217.03;;;4.30;51.53
77639;BME280;66802;52.574;14.398;2023-04-03T11:15:38;103205.47;;;4.30;50.04
77639;BME280;66802;52.574;14.398;2023-04-03T11:18:13;103213.72;;;4.22;50.75
77639;BME280;66802;52.574;14.398;2023-04-03T11:20:49;103210.06;;;4.25;51.54
77639;BME280;66802;52.574;14.398;2023-04-03T11:25:53;103207.06;;;4.34;49.89
77639;BME280;66802;52.574;14.398;2023-04-03T11:28:20;103198.91;;;4.38;49.94
77639;BME280;66802;52.574;14.398;2023-04-03T11:31:10;103201.34;;;4.45;51.29
77639;BME280;66802;52.574;14.398;2023-04-03T11:36:31;103200.44;;;4.46;51.12
77639;BME280;66802;52.574;14.398;2023-04-03T11:41:47;103194.69;;;4.56;52.56
77639;BME280;66802;52.574;14.398;2023-04-03T11:46:59;103199.44;;;4.73;52.27
77639;BME280;66802;52.574;14.398;2023-04-03T11:49:57;103190.16;;;4.83;52.10
77639;BME280;66802;52.574;14.398;2023-04-03T12:22:04;103174.25;;;5.47;50.88
77639;BME280;66802;52.574;14.398;2023-04-03T12:27:25;103177.84;;;5.24;52.61
77639;BME280;66802;52.574;14.398;2023-04-03T12:29:58;103181.78;;;5.16;51.41
77639;BME280;66802;52.574;14.398;2023-04-03T12:46:38;103169.25;;;4.93;53.09
77639;BME280;66802;52.574;14.398;2023-04-03T12:49:24;103165.19;;;5.06;54.04
77639;BME280;66802;52.574;14.398;2023-04-03T12:51:52;103163.22;;;5.33;53.70
77639;BME280;66802;52.574;14.398;2023-04-03T12:54:25;103162.13;;;5.60;51.44
77639;BME280;66802;52.574;14.398;2023-04-03T12:57:09;103153.88;;;5.65;50.18
77639;BME280;66802;52.574;14.398;2023-04-03T12:59:34;103155.03;;;5.59;50.10
77639;BME280;66802;52.574;14.398;2023-04-03T13:02:02;103156.38;;;5.47;49.77
77639;BME280;66802;52.574;14.398;2023-04-03T13:04:31;103156.25;;;5.29;51.37
77639;BME280;66802;52.574;14.398;2023-04-03T13:06:58;103151.13;;;5.23;52.12
77639;BME280;66802;52.574;14.398;2023-04-03T13:09:29;103154.88;;;5.19;52.83
77639;BME280;66802;52.574;14.398;2023-04-03T13:12:13;103156.75;;;5.17;52.93
77639;BME280;66802;52.574;14.398;2023-04-03T13:14:39;103146.97;;;5.16;53.31
77639;BME280;66802;52.574;14.398;2023-04-03T13:17:12;103147.63;;;5.21;53.71
77639;BME280;66802;52.574;14.398;2023-04-03T13:19:39;103151.38;;;5.17;54.43
77639;BME280;66802;52.574;14.398;2023-04-03T13:22:32;103149.94;;;5.08;55.50
77639;BME280;66802;52.574;14.398;2023-04-03T13:25:05;103150.78;;;5.08;56.41
77639;BME280;66802;52.574;14.398;2023-04-03T13:27:32;103144.34;;;5.14;55.67
77639;BME280;66802;52.574;14.398;2023-04-03T13:30:02;103146.72;;;5.22;56.42
77639;BME280;66802;52.574;14.398;2023-04-03T13:32:30;103150.25;;;5.22;56.96
77639;BME280;66802;52.574;14.398;2023-04-03T13:34:56;103142.16;;;5.24;57.58
77639;BME280;66802;52.574;14.398;2023-04-03T13:37:26;103141.94;;;5.30;56.98
77639;BME280;66802;52.574;14.398;2023-04-03T13:40:11;103134.16;;;5.45;55.75
77639;BME280;66802;52.574;14.398;2023-04-03T13:42:40;103138.03;;;5.38;56.48
77639;BME280;66802;52.574;14.398;2023-04-03T13:45:22;103130.03;;;5.37;56.26
77639;BME280;66802;52.574;14.398;2023-04-03T13:47:51;103129.09;;;5.38;54.02
77639;BME280;66802;52.574;14.398;2023-04-03T13:50:24;103132.72;;;5.37;53.00
77639;BME280;66802;52.574;14.398;2023-04-03T13:55:32;103122.63;;;5.22;54.26
77639;BME280;66802;52.574;14.398;2023-04-03T13:57:59;103119.13;;;5.20;55.16
77639;BME280;66802;52.574;14.398;2023-04-03T14:02:57;103122.44;;;5.26;54.85
77639;BME280;66802;52.574;14.398;2023-04-03T14:05:23;103122.88;;;5.16;54.03
77639;BME280;66802;52.574;14.398;2023-04-03T14:07:51;103124.63;;;5.17;53.95
77639;BME280;66802;52.574;14.398;2023-04-03T14:10:17;103121.06;;;5.16;54.92
77639;BME280;66802;52.574;14.398;2023-04-03T14:12:43;103117.41;;;5.19;55.18
77639;BME280;66802;52.574;14.398;2023-04-03T14:15:18;103113.03;;;5.16;54.03
77639;BME280;66802;52.574;14.398;2023-04-03T14:17:45;103109.16;;;5.23;54.84
77639;BME280;66802;52.574;14.398;2023-04-03T14:20:16;103115.16;;;5.30;56.32
77639;BME280;66802;52.574;14.398;2023-04-03T14:22:43;103114.91;;;5.36;56.37
77639;BME280;66802;52.574;14.398;2023-04-03T14:25:08;103112.34;;;5.55;55.55
77639;BME280;66802;52.574;14.398;2023-04-03T14:27:41;103105.38;;;5.50;53.58
77639;BME280;66802;52.574;14.398;2023-04-03T14:30:17;103106.44;;;5.46;53.58
77639;BME280;66802;52.574;14.398;2023-04-03T14:32:44;103103.63;;;5.49;55.17
77639;BME280;66802;52.574;14.398;2023-04-03T14:35:10;103101.31;;;5.62;54.47
77639;BME280;66802;52.574;14.398;2023-04-03T14:37:36;103105.66;;;5.65;53.54
77639;BME280;66802;52.574;14.398;2023-04-03T14:40:04;103100.94;;;5.71;53.36
77639;BME280;66802;52.574;14.398;2023-04-03T14:42:33;103094.94;;;5.65;51.93
77639;BME280;66802;52.574;14.398;2023-04-03T14:45:03;103098.38;;;5.68;53.26
77639;BME280;66802;52.574;14.398;2023-04-03T14:47:30;103100.44;;;5.62;53.52
77639;BME280;66802;52.574;14.398;2023-04-03T14:49:56;103101.94;;;5.47;54.90
77639;BME280;66802;52.574;14.398;2023-04-03T14:52:26;103103.00;;;5.43;55.28
77639;BME280;66802;52.574;14.398;2023-04-03T14:54:54;103106.25;;;5.29;56.72
77639;BME280;66802;52.574;14.398;2023-04-03T14:57:24;103103.06;;;5.20;56.25
77639;BME280;66802;52.574;14.398;2023-04-03T14:59:50;103103.19;;;5.17;56.70
77639;BME280;66802;52.574;14.398;2023-04-03T15:02:26;103100.03;;;5.07;56.49
77639;BME280;66802;52.574;14.398;2023-04-03T15:04:53;103098.44;;;5.01;57.96
77639;BME280;66802;52.574;14.398;2023-04-03T15:07:19;103098.63;;;4.97;56.10
77639;BME280;66802;52.574;14.398;2023-04-03T15:09:45;103102.53;;;4.88;56.20
77639;BME280;66802;52.574;14.398;2023-04-03T15:12:11;103104.56;;;4.82;56.93
77639;BME280;66802;52.574;14.398;2023-04-03T15:14:37;103090.28;;;4.83;56.26
77639;BME280;66802;52.574;14.398;2023-04-03T15:17:16;103098.47;;;4.78;56.76
77639;BME280;66802;52.574;14.398;2023-04-03T15:19:43;103097.88;;;4.70;56.57
77639;BME280;66802;52.574;14.398;2023-04-03T15:22:14;103104.63;;;4.80;57.22
77639;BME280;66802;52.574;14.398;2023-04-03T15:24:40;103097.47;;;4.81;56.75
77639;BME280;66802;52.574;14.398;2023-04-03T15:27:06;103093.97;;;4.78;56.77
77639;BME280;66802;52.574;14.398;2023-04-03T15:29:31;103106.50;;;4.78;57.24
77639;BME280;66802;52.574;14.398;2023-04-03T15:31:57;103105.63;;;4.77;57.22
77639;BME280;66802;52.574;14.398;2023-04-03T15:34:22;103108.22;;;4.79;57.19
77639;BME280;66802;52.574;14.398;2023-04-03T15:36:49;103108.47;;;4.73;57.52
77639;BME280;66802;52.574;14.398;2023-04-03T15:39:14;103107.31;;;4.80;57.92
77639;BME280;66802;52.574;14.398;2023-04-03T15:41:41;103101.13;;;4.78;57.47
77639;BME280;66802;52.574;14.398;2023-04-03T15:44:07;103103.25;;;4.70;57.55
77639;BME280;66802;52.574;14.398;2023-04-03T15:46:33;103101.44;;;4.70;57.85
77639;BME280;66802;52.574;14.398;2023-04-03T15:48:58;103097.88;;;4.70;58.07
77639;BME280;66802;52.574;14.398;2023-04-03T15:51:24;103098.06;;;4.65;58.05
77639;BME280;66802;52.574;14.398;2023-04-03T15:53:49;103104.28;;;4.66;58.61
77639;BME280;66802;52.574;14.398;2023-04-03T15:56:15;103104.13;;;4.70;57.98
77639;BME280;66802;52.574;14.398;2023-04-03T15:58:41;103098.81;;;4.69;58.18
77639;BME280;66802;52.574;14.398;2023-04-03T16:01:09;103099.75;;;4.68;58.83
77639;BME280;66802;52.574;14.398;2023-04-03T16:03:36;103102.38;;;4.69;57.72
77639;BME280;66802;52.574;14.398;2023-04-03T16:06:04;103102.56;;;4.65;58.16
77639;BME280;66802;52.574;14.398;2023-04-03T16:08:30;103106.94;;;4.66;58.16
77639;BME280;66802;52.574;14.398;2023-04-03T16:10:55;103110.50;;;4.66;58.50
77639;BME280;66802;52.574;14.398;2023-04-03T16:13:21;103107.72;;;4.69;58.34
77639;BME280;66802;52.574;14.398;2023-04-03T16:15:47;103108.59;;;4.70;58.20
77639;BME280;66802;52.574;14.398;2023-04-03T16:18:14;103111.97;;;4.75;57.74
77639;BME280;66802;52.574;14.398;2023-04-03T16:20:40;103100.72;;;4.65;57.61
77639;BME280;66802;52.574;14.398;2023-04-03T16:23:05;103107.72;;;4.69;57.86
77639;BME280;66802;52.574;14.398;2023-04-03T16:25:31;103102.22;;;4.74;56.70
77639;BME280;66802;52.574;14.398;2023-04-03T16:27:57;103098.81;;;4.69;56.86
77639;BME280;66802;52.574;14.398;2023-04-03T16:30:23;103105.44;;;4.59;57.89
77639;BME280;66802;52.574;14.398;2023-04-03T16:32:48;103100.91;;;4.61;57.91
77639;BME280;66802;52.574;14.398;2023-04-03T16:35:14;103104.75;;;4.54;57.45
77639;BME280;66802;52.574;14.398;2023-04-03T16:37:40;103100.44;;;4.50;57.51
77639;BME280;66802;52.574;14.398;2023-04-03T16:40:07;103101.44;;;4.47;58.16
77639;BME280;66802;52.574;14.398;2023-04-03T16:42:32;103097.94;;;4.45;58.43
77639;BME280;66802;52.574;14.398;2023-04-03T16:44:58;103098.81;;;4.46;58.93
77639;BME280;66802;52.574;14.398;2023-04-03T16:47:26;103101.53;;;4.44;57.60
77639;BME280;66802;52.574;14.398;2023-04-03T16:49:51;103102.66;;;4.38;57.95
77639;BME280;66802;52.574;14.398;2023-04-03T16:52:17;103099.16;;;4.36;58.64
77639;BME280;66802;52.574;14.398;2023-04-03T16:54:42;103105.31;;;4.38;59.45
77639;BME280;66802;52.574;14.398;2023-04-03T16:57:08;103099.03;;;4.39;59.48
77639;BME280;66802;52.574;14.398;2023-04-03T16:59:34;103099.16;;;4.36;59.03
77639;BME280;66802;52.574;14.398;2023-04-03T17:02:00;103090.31;;;4.34;59.34
77639;BME280;66802;52.574;14.398;2023-04-03T17:04:25;103095.59;;;4.36;59.22
77639;BME280;66802;52.574;14.398;2023-04-03T17:06:52;103093.81;;;4.36;59.17
77639;BME280;66802;52.574;14.398;2023-04-03T17:09:18;103099.44;;;4.29;59.47
77639;BME280;66802;52.574;14.398;2023-04-03T17:11:45;103104.13;;;4.22;59.13
77639;BME280;66802;52.574;14.398;2023-04-03T17:14:11;103096.91;;;4.24;59.59
77639;BME280;66802;52.574;14.398;2023-04-03T17:16:37;103097.84;;;4.23;60.17
77639;BME280;66802;52.574;14.398;2023-04-03T17:19:04;103098.09;;;4.17;60.83
77639;BME280;66802;52.574;14.398;2023-04-03T17:21:32;103097.22;;;4.17;60.68
77639;BME280;66802;52.574;14.398;2023-04-03T17:24:02;103099.72;;;4.21;60.44
77639;BME280;66802;52.574;14.398;2023-04-03T17:26:27;103102.84;;;4.09;60.73
77639;BME280;66802;52.574;14.398;2023-04-03T17:28:53;103100.91;;;4.13;60.39
77639;BME280;66802;52.574;14.398;2023-04-03T17:31:19;103100.91;;;4.13;60.62
77639;BME280;66802;52.574;14.398;2023-04-03T17:33:45;103103.97;;;4.02;61.24
77639;BME280;66802;52.574;14.398;2023-04-03T17:36:10;103099.78;;;3.95;61.95
77639;BME280;66802;52.574;14.398;2023-04-03T17:38:36;103093.81;;;3.87;62.25